createdAt,value
2018-06-28T00:02:02.518Z,100750.00
2018-06-28T00:04:38.536Z,100745.00
2018-06-28T00:07:15.122Z,100748.00
2018-06-28T00:09:53.331Z,100751.00
2018-06-28T00:12:29.920Z,100748.00
2018-06-28T00:15:07.702Z,100748.00
2018-06-28T00:17:45.161Z,100751.00
2018-06-28T00:20:22.765Z,100753.00
2018-06-28T00:22:59.403Z,100754.00
2018-06-28T00:25:36.963Z,100762.00
2018-06-28T00:28:13.598Z,100761.00
2018-06-28T00:30:49.974Z,100754.00
2018-06-28T00:33:26.230Z,100757.00
2018-06-28T00:36:02.626Z,100756.00
2018-06-28T00:38:38.784Z,100756.00
2018-06-28T00:41:15.363Z,100751.00
2018-06-28T00:43:53.842Z,100751.00
2018-06-28T00:46:31.382Z,100749.00
2018-06-28T00:49:07.554Z,100747.00
2018-06-28T00:51:45.320Z,100756.00
2018-06-28T00:54:21.141Z,100748.00
2018-06-28T00:56:58.552Z,100758.00
2018-06-28T00:59:36.027Z,100762.00
2018-06-28T01:02:14.986Z,100757.00
2018-06-28T01:04:51.388Z,100752.00
2018-06-28T01:07:28.960Z,100746.00
2018-06-28T01:10:05.972Z,100754.00
2018-06-28T01:12:42.757Z,100747.00
2018-06-28T01:15:18.662Z,100737.00
2018-06-28T01:17:54.758Z,100736.00
2018-06-28T01:20:30.783Z,100729.00
2018-06-28T01:23:08.778Z,100730.00
2018-06-28T01:25:45.944Z,100730.00
2018-06-28T01:28:23.006Z,100729.00
2018-06-28T01:31:00.418Z,100730.00
2018-06-28T01:33:36.387Z,100727.00
2018-06-28T01:36:14.630Z,100726.00
2018-06-28T01:38:50.859Z,100726.00
2018-06-28T01:43:45.734Z,100728.00
2018-06-28T01:46:23.450Z,100723.00
2018-06-28T01:48:59.844Z,100722.00
2018-06-28T01:51:37.685Z,100724.00
2018-06-28T01:54:13.886Z,100725.00
2018-06-28T01:56:51.336Z,100717.00
2018-06-28T01:59:29.200Z,100717.00
2018-06-28T02:02:06.872Z,100723.00
2018-06-28T02:04:43.338Z,100729.00
2018-06-28T02:07:20.794Z,100731.00
2018-06-28T02:09:58.091Z,100722.00
2018-06-28T02:12:34.465Z,100722.00
2018-06-28T02:15:11.743Z,100713.00
2018-06-28T02:17:48.338Z,100714.00
2018-06-28T02:20:24.277Z,100716.00
2018-06-28T02:23:01.058Z,100706.00
2018-06-28T02:25:37.983Z,100709.00
2018-06-28T02:28:14.414Z,100704.00
2018-06-28T02:30:50.721Z,100701.00
2018-06-28T02:33:27.785Z,100699.00
2018-06-28T02:36:04.531Z,100696.00
2018-06-28T02:38:42.685Z,100696.00
2018-06-28T02:41:18.540Z,100691.00
2018-06-28T02:43:54.538Z,100690.00
2018-06-28T02:46:30.724Z,100696.00
2018-06-28T02:49:07.337Z,100697.00
2018-06-28T02:51:44.785Z,100693.00
2018-06-28T02:54:23.098Z,100694.00
2018-06-28T02:56:59.709Z,100693.00
2018-06-28T02:59:36.274Z,100685.00
2018-06-28T03:02:13.290Z,100686.00
2018-06-28T03:04:50.899Z,100687.00
2018-06-28T03:07:26.806Z,100690.00
2018-06-28T03:10:03.762Z,100696.00
2018-06-28T03:12:40.553Z,100693.00
2018-06-28T03:15:17.001Z,100695.00
2018-06-28T03:17:55.114Z,100688.00
2018-06-28T03:20:31.926Z,100684.00
2018-06-28T03:23:08.314Z,100688.00
2018-06-28T03:25:44.622Z,100684.00
2018-06-28T03:28:21.157Z,100684.00
2018-06-28T03:30:57.035Z,100676.00
2018-06-28T03:33:33.030Z,100680.00
2018-06-28T03:36:10.809Z,100685.00
2018-06-28T03:38:47.353Z,100687.00
2018-06-28T03:41:24.653Z,100687.00
2018-06-28T03:44:01.516Z,100689.00
2018-06-28T03:46:38.968Z,100687.00
2018-06-28T03:49:16.510Z,100682.00
2018-06-28T03:51:53.904Z,100682.00
2018-06-28T03:54:32.058Z,100679.00
2018-06-28T03:57:09.927Z,100677.00
2018-06-28T03:59:47.013Z,100671.00
2018-06-28T04:02:23.583Z,100672.00
2018-06-28T04:05:01.569Z,100672.00
2018-06-28T04:07:39.363Z,100670.00
2018-06-28T04:10:16.943Z,100669.00
2018-06-28T04:12:54.251Z,100669.00
2018-06-28T04:15:30.553Z,100671.00
2018-06-28T04:18:07.710Z,100676.00
2018-06-28T04:20:45.450Z,100676.00
2018-06-28T04:23:21.861Z,100682.00
2018-06-28T04:25:59.091Z,100676.00
2018-06-28T04:28:36.905Z,100678.00
2018-06-28T04:31:14.625Z,100670.00
2018-06-28T04:33:52.965Z,100672.00
2018-06-28T04:36:30.742Z,100665.00
2018-06-28T04:39:10.139Z,100662.00
2018-06-28T04:41:46.263Z,100668.00
2018-06-28T04:44:22.619Z,100672.00
2018-06-28T04:46:59.358Z,100674.00
2018-06-28T04:49:36.637Z,100665.00
2018-06-28T04:52:14.817Z,100673.00
2018-06-28T04:54:50.856Z,100665.00
2018-06-28T04:57:28.468Z,100661.00
2018-06-28T05:00:05.745Z,100658.00
2018-06-28T05:02:42.428Z,100655.00
2018-06-28T05:05:19.052Z,100650.00
2018-06-28T05:07:55.534Z,100646.00
2018-06-28T05:10:32.645Z,100647.00
2018-06-28T05:13:09.201Z,100642.00
2018-06-28T05:15:47.137Z,100647.00
2018-06-28T05:18:24.525Z,100644.00
2018-06-28T05:21:01.951Z,100644.00
2018-06-28T05:23:40.082Z,100644.00
2018-06-28T05:26:16.502Z,100653.00
2018-06-28T05:28:52.824Z,100645.00
2018-06-28T05:31:30.370Z,100640.00
2018-06-28T05:34:07.732Z,100639.00
2018-06-28T05:36:45.026Z,100631.00
2018-06-28T05:39:21.674Z,100626.00
2018-06-28T05:41:59.573Z,100626.00
2018-06-28T05:44:35.299Z,100623.00
2018-06-28T05:47:12.356Z,100623.00
2018-06-28T05:49:49.605Z,100625.00
2018-06-28T05:52:26.845Z,100622.00
2018-06-28T05:55:02.944Z,100623.00
2018-06-28T05:57:40.675Z,100616.00
2018-06-28T06:00:18.934Z,100617.00
2018-06-28T06:02:56.013Z,100607.00
2018-06-28T06:05:33.874Z,100603.00
2018-06-28T06:08:10.456Z,100602.00
2018-06-28T06:10:47.782Z,100600.00
2018-06-28T06:13:25.440Z,100602.00
2018-06-28T06:16:02.611Z,100603.00
2018-06-28T06:18:40.370Z,100603.00
2018-06-28T06:21:17.045Z,100602.00
2018-06-28T06:23:54.750Z,100602.00
2018-06-28T06:26:31.765Z,100602.00
2018-06-28T06:29:09.798Z,100604.00
2018-06-28T06:31:47.537Z,100603.00
2018-06-28T06:34:23.565Z,100602.00
2018-06-28T06:37:00.440Z,100598.00
2018-06-28T06:39:37.043Z,100594.00
2018-06-28T06:42:13.760Z,100595.00
2018-06-28T06:44:52.239Z,100582.00
2018-06-28T06:47:30.362Z,100584.00
2018-06-28T06:50:08.757Z,100580.00
2018-06-28T06:52:45.051Z,100575.00
2018-06-28T06:55:22.282Z,100571.00
2018-06-28T06:57:59.673Z,100567.00
2018-06-28T07:00:36.705Z,100566.00
2018-06-28T07:03:14.961Z,100561.00
2018-06-28T07:05:51.778Z,100555.00
2018-06-28T07:08:28.325Z,100552.00
2018-06-28T07:11:05.070Z,100548.00
2018-06-28T07:13:41.806Z,100555.00
2018-06-28T07:16:18.252Z,100552.00
2018-06-28T07:18:54.832Z,100549.00
2018-06-28T07:21:31.621Z,100545.00
2018-06-28T07:24:09.488Z,100540.00
2018-06-28T07:26:48.007Z,100534.00
2018-06-28T07:29:24.989Z,100531.00
2018-06-28T07:32:03.230Z,100528.00
2018-06-28T07:34:41.440Z,100524.00
2018-06-28T07:37:19.274Z,100520.00
2018-06-28T07:39:56.246Z,100520.00
2018-06-28T07:42:32.841Z,100510.00
2018-06-28T07:45:09.941Z,100508.00
2018-06-28T07:47:47.488Z,100506.00
2018-06-28T07:50:25.701Z,100499.00
2018-06-28T07:53:02.547Z,100494.00
2018-06-28T07:55:39.232Z,100490.00
2018-06-28T07:58:17.921Z,100490.00
2018-06-28T08:00:55.878Z,100483.00
2018-06-28T08:03:33.015Z,100489.00
2018-06-28T08:06:09.100Z,100475.00
2018-06-28T08:08:45.792Z,100469.00
2018-06-28T08:11:23.829Z,100474.00
2018-06-28T08:14:01.256Z,100479.00
2018-06-28T08:16:39.102Z,100475.00
2018-06-28T08:19:17.954Z,100488.00
2018-06-28T08:21:54.626Z,100485.00
2018-06-28T08:24:30.990Z,100474.00
2018-06-28T08:27:07.787Z,100473.00
2018-06-28T08:29:45.090Z,100469.00
2018-06-28T08:32:23.272Z,100455.00
2018-06-28T08:35:00.209Z,100455.00
2018-06-28T08:37:37.719Z,100460.00
2018-06-28T08:40:16.245Z,100459.00
2018-06-28T08:42:53.364Z,100447.00
2018-06-28T08:45:31.158Z,100441.00
2018-06-28T08:48:07.759Z,100450.00
2018-06-28T08:50:44.579Z,100447.00
2018-06-28T08:53:21.806Z,100448.00
2018-06-28T08:55:58.449Z,100451.00
2018-06-28T08:58:35.730Z,100442.00
2018-06-28T09:01:13.756Z,100443.00
2018-06-28T09:03:50.043Z,100446.00
2018-06-28T09:06:27.154Z,100451.00
2018-06-28T09:09:08.068Z,100443.00
2018-06-28T09:11:45.928Z,100442.00
2018-06-28T09:14:22.286Z,100437.00
2018-06-28T09:16:58.906Z,100436.00
2018-06-28T09:19:35.713Z,100429.00
2018-06-28T09:22:11.851Z,100427.00
2018-06-28T09:24:48.470Z,100428.00
2018-06-28T09:27:25.470Z,100423.00
2018-06-28T09:30:03.721Z,100430.00
2018-06-28T09:32:40.478Z,100426.00
2018-06-28T09:35:18.379Z,100431.00
2018-06-28T09:37:55.321Z,100429.00
2018-06-28T09:40:33.744Z,100421.00
2018-06-28T09:43:09.932Z,100414.00
2018-06-28T09:45:48.202Z,100424.00
2018-06-28T09:48:26.071Z,100415.00
2018-06-28T09:51:02.791Z,100416.00
2018-06-28T09:53:40.674Z,100422.00
2018-06-28T09:56:17.737Z,100418.00
2018-06-28T09:58:55.845Z,100417.00
2018-06-28T10:01:33.490Z,100405.00
2018-06-28T10:04:11.653Z,100409.00
2018-06-28T10:06:47.885Z,100404.00
2018-06-28T10:09:25.618Z,100402.00
2018-06-28T10:12:02.292Z,100404.00
2018-06-28T10:14:38.293Z,100399.00
2018-06-28T10:17:15.443Z,100394.00
2018-06-28T10:19:53.509Z,100389.00
2018-06-28T10:22:31.306Z,100398.00
2018-06-28T10:25:07.691Z,100390.00
2018-06-28T10:27:43.822Z,100387.00
2018-06-28T10:30:20.809Z,100394.00
2018-06-28T10:32:57.468Z,100385.00
2018-06-28T10:35:34.727Z,100388.00
2018-06-28T10:38:11.438Z,100383.00
2018-06-28T10:40:48.109Z,100374.00
2018-06-28T10:43:25.354Z,100376.00
2018-06-28T10:46:03.868Z,100372.00
2018-06-28T10:48:40.670Z,100371.00
2018-06-28T10:51:17.449Z,100377.00
2018-06-28T10:53:54.434Z,100380.00
2018-06-28T10:56:30.702Z,100375.00
2018-06-28T10:59:08.500Z,100377.00
2018-06-28T11:01:45.414Z,100374.00
2018-06-28T11:04:21.733Z,100370.00
2018-06-28T11:06:58.403Z,100372.00
2018-06-28T11:09:34.175Z,100368.00
2018-06-28T11:12:10.398Z,100363.00
2018-06-28T11:14:46.665Z,100368.00
2018-06-28T11:17:24.478Z,100361.00
2018-06-28T11:20:01.312Z,100367.00
2018-06-28T11:22:37.009Z,100361.00
2018-06-28T11:25:14.638Z,100357.00
2018-06-28T11:27:52.443Z,100361.00
2018-06-28T11:30:28.854Z,100357.00
2018-06-28T11:33:06.545Z,100353.00
2018-06-28T11:35:44.572Z,100356.00
2018-06-28T11:38:21.825Z,100350.00
2018-06-28T11:40:58.018Z,100348.00
2018-06-28T11:43:34.877Z,100349.00
2018-06-28T11:46:10.724Z,100345.00
2018-06-28T11:48:47.660Z,100345.00
2018-06-28T11:51:24.750Z,100349.00
2018-06-28T11:54:01.090Z,100344.00
2018-06-28T11:56:37.754Z,100338.00
2018-06-28T11:59:14.187Z,100345.00
2018-06-28T12:01:50.780Z,100345.00
2018-06-28T12:04:26.603Z,100344.00
2018-06-28T12:07:02.332Z,100338.00
2018-06-28T12:09:38.933Z,100341.00
2018-06-28T12:12:17.289Z,100355.00
2018-06-28T12:14:54.924Z,100341.00
2018-06-28T12:17:30.985Z,100343.00
2018-06-28T12:20:08.378Z,100339.00
2018-06-28T12:22:44.893Z,100339.00
2018-06-28T12:25:21.161Z,100335.00
2018-06-28T12:27:57.961Z,100335.00
2018-06-28T12:30:33.889Z,100328.00
2018-06-28T12:33:10.291Z,100329.00
2018-06-28T12:35:46.395Z,100328.00
2018-06-28T12:38:24.894Z,100326.00
2018-06-28T12:41:02.037Z,100325.00
2018-06-28T12:43:39.979Z,100333.00
2018-06-28T12:46:17.141Z,100327.00
2018-06-28T12:48:53.971Z,100331.00
2018-06-28T12:51:48.274Z,100330.00
2018-06-28T12:54:24.344Z,100332.00
2018-06-28T12:57:00.962Z,100337.00
2018-06-28T12:59:38.558Z,100345.00
2018-06-28T13:02:15.762Z,100357.00
2018-06-28T13:04:52.310Z,100357.00
2018-06-28T13:07:29.422Z,100360.00
2018-06-28T13:10:08.069Z,100365.00
2018-06-28T13:12:45.600Z,100363.00
2018-06-28T13:15:22.581Z,100363.00
2018-06-28T13:17:59.283Z,100355.00
2018-06-28T13:20:36.477Z,100358.00
2018-06-28T13:23:13.187Z,100362.00
2018-06-28T13:25:51.428Z,100361.00
2018-06-28T13:28:29.839Z,100365.00
2018-06-28T13:31:06.188Z,100362.00
2018-06-28T13:33:43.928Z,100361.00
2018-06-28T13:36:21.512Z,100358.00
2018-06-28T13:38:59.007Z,100354.00
2018-06-28T13:41:36.798Z,100344.00
2018-06-28T13:44:13.005Z,100348.00
2018-06-28T13:46:49.678Z,100345.00
2018-06-28T13:49:26.396Z,100341.00
2018-06-28T13:52:02.726Z,100333.00
2018-06-28T13:54:39.065Z,100330.00
2018-06-28T13:57:15.340Z,100323.00
2018-06-28T13:59:52.981Z,100321.00
2018-06-28T14:02:29.978Z,100313.00
2018-06-28T14:05:06.723Z,100312.00
2018-06-28T14:07:43.323Z,100309.00
2018-06-28T14:10:19.514Z,100300.00
2018-06-28T14:12:56.747Z,100294.00
2018-06-28T14:15:34.607Z,100298.00
2018-06-28T14:18:10.809Z,100291.00
2018-06-28T14:20:47.417Z,100295.00
2018-06-28T14:23:25.333Z,100297.00
2018-06-28T14:26:01.699Z,100291.00
2018-06-28T14:28:38.092Z,100293.00
2018-06-28T14:31:15.322Z,100288.00
2018-06-28T14:33:54.337Z,100286.00
2018-06-28T14:36:30.423Z,100281.00
2018-06-28T14:39:09.491Z,100276.00
2018-06-28T14:41:47.652Z,100266.00
2018-06-28T14:44:24.549Z,100265.00
2018-06-28T14:47:00.603Z,100263.00
2018-06-28T14:49:37.594Z,100257.00
2018-06-28T14:52:13.793Z,100257.00
2018-06-28T14:54:51.494Z,100258.00
2018-06-28T14:57:28.586Z,100260.00
2018-06-28T15:00:05.579Z,100274.00
2018-06-28T15:02:42.338Z,100273.00
2018-06-28T15:05:20.290Z,100281.00
2018-06-28T15:07:57.237Z,100280.00
2018-06-28T15:10:34.963Z,100278.00
2018-06-28T15:13:12.757Z,100282.00
2018-06-28T15:15:50.335Z,100286.00
2018-06-28T15:18:27.893Z,100290.00
2018-06-28T15:21:04.792Z,100285.00
2018-06-28T15:23:42.811Z,100280.00
2018-06-28T15:26:19.489Z,100271.00
2018-06-28T15:28:57.513Z,100272.00
2018-06-28T15:31:35.974Z,100267.00
2018-06-28T15:34:12.211Z,100266.00
2018-06-28T15:36:48.625Z,100263.00
2018-06-28T15:39:25.130Z,100257.00
2018-06-28T15:42:03.951Z,100254.00
2018-06-28T15:44:40.959Z,100258.00
2018-06-28T15:47:19.369Z,100256.00
2018-06-28T15:49:56.066Z,100254.00
2018-06-28T15:52:33.197Z,100249.00
2018-06-28T15:55:11.890Z,100244.00
2018-06-28T15:57:47.894Z,100237.00
2018-06-28T16:00:26.112Z,100238.00
2018-06-28T16:03:02.888Z,100239.00
2018-06-28T16:05:38.921Z,100238.00
2018-06-28T16:08:16.805Z,100238.00
2018-06-28T16:10:54.657Z,100232.00
2018-06-28T16:13:31.793Z,100234.00
2018-06-28T16:16:09.209Z,100230.00
2018-06-28T16:18:49.366Z,100230.00
2018-06-28T16:21:28.162Z,100234.00
2018-06-28T16:24:05.124Z,100220.00
2018-06-28T16:26:42.361Z,100226.00
2018-06-28T16:29:18.078Z,100224.00
2018-06-28T16:31:54.398Z,100226.00
2018-06-28T16:34:32.754Z,100224.00
2018-06-28T16:37:08.799Z,100221.00
2018-06-28T16:39:45.389Z,100219.00
2018-06-28T16:42:21.743Z,100209.00
2018-06-28T16:45:01.148Z,100214.00
2018-06-28T16:47:37.777Z,100215.00
2018-06-28T16:50:15.790Z,100223.00
2018-06-28T16:52:52.486Z,100223.00
2018-06-28T16:55:29.706Z,100226.00
2018-06-28T16:58:05.888Z,100223.00
2018-06-28T17:00:42.105Z,100229.00
2018-06-28T17:03:18.501Z,100230.00
2018-06-28T17:05:54.873Z,100231.00
2018-06-28T17:08:31.269Z,100231.00
2018-06-28T17:11:09.166Z,100231.00
2018-06-28T17:13:45.705Z,100228.00
2018-06-28T17:16:22.784Z,100222.00
2018-06-28T17:18:59.605Z,100219.00
2018-06-28T17:21:36.231Z,100221.00
2018-06-28T17:24:13.726Z,100218.00
2018-06-28T17:26:49.806Z,100215.00
2018-06-28T17:29:26.400Z,100212.00
2018-06-28T17:32:03.838Z,100219.00
2018-06-28T17:34:41.578Z,100217.00
2018-06-28T17:37:17.797Z,100217.00
2018-06-28T17:39:56.566Z,100222.00
2018-06-28T17:42:33.230Z,100220.00
2018-06-28T17:45:10.584Z,100215.00
2018-06-28T17:47:47.105Z,100215.00
2018-06-28T17:50:23.995Z,100213.00
2018-06-28T17:53:00.026Z,100222.00
2018-06-28T17:55:35.789Z,100225.00
2018-06-28T17:58:11.964Z,100221.00
2018-06-28T18:00:49.677Z,100218.00
2018-06-28T18:03:25.974Z,100215.00
2018-06-28T18:06:02.492Z,100219.00
2018-06-28T18:08:38.868Z,100217.00
2018-06-28T18:11:16.270Z,100210.00
2018-06-28T18:13:52.766Z,100214.00
2018-06-28T18:16:29.513Z,100211.00
2018-06-28T18:19:07.758Z,100206.00
2018-06-28T18:21:45.020Z,100202.00
2018-06-28T18:24:21.898Z,100208.00
2018-06-28T18:26:58.885Z,100208.00
2018-06-28T18:29:34.976Z,100204.00
2018-06-28T18:32:11.709Z,100207.00
2018-06-28T18:34:48.637Z,100210.00
2018-06-28T18:37:26.523Z,100211.00
2018-06-28T18:40:03.776Z,100212.00
2018-06-28T18:42:41.822Z,100204.00
2018-06-28T18:45:20.512Z,100198.00
2018-06-28T18:47:57.269Z,100197.00
2018-06-28T18:50:36.530Z,100192.00
2018-06-28T18:53:13.330Z,100186.00
2018-06-28T18:55:50.148Z,100188.00
2018-06-28T18:58:27.292Z,100193.00
2018-06-28T19:01:03.342Z,100183.00
2018-06-28T19:03:41.358Z,100190.00
2018-06-28T19:06:18.530Z,100189.00
2018-06-28T19:08:56.346Z,100189.00
2018-06-28T19:11:34.443Z,100193.00
2018-06-28T19:16:23.366Z,100192.00
2018-06-28T19:18:59.977Z,100188.00
2018-06-28T19:21:42.037Z,100187.00
2018-06-28T19:24:19.999Z,100185.00
2018-06-28T19:26:56.367Z,100187.00
2018-06-28T19:29:38.339Z,100192.00
2018-06-28T19:32:22.416Z,100191.00
2018-06-28T19:35:01.624Z,100194.00
2018-06-28T19:37:43.739Z,100197.00
2018-06-28T19:40:27.949Z,100195.00
2018-06-28T19:43:09.010Z,100200.00
2018-06-28T19:45:47.032Z,100203.00
2018-06-28T19:48:25.945Z,100207.00
2018-06-28T19:51:08.281Z,100208.00
2018-06-28T19:53:44.970Z,100206.00
2018-06-28T19:56:21.504Z,100205.00
2018-06-28T19:58:57.291Z,100200.00
2018-06-28T20:01:39.078Z,100197.00
2018-06-28T20:04:14.953Z,100191.00
2018-06-28T20:06:53.404Z,100188.00
2018-06-28T20:09:29.602Z,100187.00
2018-06-28T20:12:08.442Z,100185.00
2018-06-28T20:14:50.149Z,100181.00
2018-06-28T20:17:31.999Z,100185.00
2018-06-28T20:20:25.055Z,100181.00
2018-06-28T20:23:02.117Z,100178.00
2018-06-28T20:25:39.073Z,100179.00
2018-06-28T20:28:21.746Z,100183.00
2018-06-28T20:31:03.230Z,100181.00
2018-06-28T20:33:45.534Z,100179.00
2018-06-28T20:36:22.517Z,100174.00
2018-06-28T20:38:59.863Z,100175.00
2018-06-28T20:41:36.987Z,100179.00
2018-06-28T20:44:13.410Z,100183.00
2018-06-28T20:46:50.301Z,100186.00
2018-06-28T20:49:27.932Z,100184.00
2018-06-28T20:52:04.876Z,100187.00
2018-06-28T20:54:41.937Z,100185.00
2018-06-28T20:57:17.866Z,100183.00
2018-06-28T20:59:54.169Z,100180.00
2018-06-28T21:02:30.319Z,100181.00
2018-06-28T21:05:07.460Z,100182.00
2018-06-28T21:07:43.797Z,100183.00
2018-06-28T21:10:22.268Z,100184.00
2018-06-28T21:12:58.974Z,100183.00
2018-06-28T21:15:35.002Z,100186.00
2018-06-28T21:18:12.638Z,100184.00
2018-06-28T21:20:48.614Z,100186.00
2018-06-28T21:23:26.180Z,100187.00
2018-06-28T21:26:02.882Z,100184.00
2018-06-28T21:28:39.878Z,100191.00
2018-06-28T21:31:16.741Z,100189.00
2018-06-28T21:33:53.921Z,100185.00
2018-06-28T21:36:30.517Z,100187.00
2018-06-28T21:39:11.131Z,100183.00
2018-06-28T21:41:47.510Z,100196.00
2018-06-28T21:44:23.541Z,100198.00
2018-06-28T21:47:00.590Z,100196.00
2018-06-28T21:49:37.064Z,100198.00
2018-06-28T21:52:13.703Z,100194.00
2018-06-28T21:54:51.005Z,100193.00
2018-06-28T21:57:29.027Z,100193.00
2018-06-28T22:00:09.226Z,100192.00
2018-06-28T22:02:46.082Z,100196.00
2018-06-28T22:05:22.645Z,100191.00
2018-06-28T22:07:58.811Z,100188.00
2018-06-28T22:10:35.757Z,100189.00
2018-06-28T22:13:13.223Z,100185.00
2018-06-28T22:15:49.078Z,100182.00
2018-06-28T22:18:25.781Z,100185.00
2018-06-28T22:21:02.259Z,100187.00
2018-06-28T22:23:38.357Z,100190.00
2018-06-28T22:26:14.889Z,100180.00
2018-06-28T22:28:51.571Z,100181.00
2018-06-28T22:31:28.867Z,100180.00
2018-06-28T22:34:06.919Z,100180.00
2018-06-28T22:36:43.777Z,100182.00
2018-06-28T22:39:20.973Z,100185.00
2018-06-28T22:41:57.318Z,100178.00
2018-06-28T22:44:34.074Z,100174.00
2018-06-28T22:47:12.026Z,100174.00
2018-06-28T22:49:48.301Z,100173.00
2018-06-28T22:52:24.349Z,100169.00
2018-06-28T22:55:01.705Z,100170.00
2018-06-28T22:57:38.319Z,100163.00
2018-06-28T23:00:23.377Z,100162.00
2018-06-28T23:03:00.027Z,100162.00
2018-06-28T23:05:36.331Z,100161.00
2018-06-28T23:08:12.709Z,100160.00
2018-06-28T23:10:49.679Z,100162.00
2018-06-28T23:13:26.742Z,100166.00
2018-06-28T23:16:04.931Z,100161.00
2018-06-28T23:18:41.231Z,100165.00
2018-06-28T23:21:19.140Z,100169.00
2018-06-28T23:23:57.737Z,100169.00
2018-06-28T23:26:34.547Z,100169.00
2018-06-28T23:29:10.382Z,100168.00
2018-06-28T23:31:46.823Z,100166.00
2018-06-28T23:34:23.161Z,100169.00
2018-06-28T23:36:59.614Z,100165.00
2018-06-28T23:39:36.603Z,100169.00
2018-06-28T23:42:13.726Z,100168.00
2018-06-28T23:44:49.569Z,100163.00
2018-06-28T23:47:28.031Z,100163.00
2018-06-28T23:50:06.133Z,100160.00
2018-06-28T23:52:42.678Z,100168.00
2018-06-28T23:55:18.808Z,100167.00
2018-06-28T23:57:56.553Z,100166.00
